Time;durP1;ratioP1;P1;durP2;ratioP2;P2;SDS_P1;SDS_P2;PMS_P1;PMS_P2;Temp;Humidity;BMP_temperature;BMP_pressure;BME280_temperature;BME280_humidity;BME280_pressure;Samples;Min_cycle;Max_cycle;Signal;HPM_P1;HPM_P2
2023/10/12 00:01:58;;;;;;;11.27;6.55;;;13.20;99.90;;;;;;5047341;28;20048;-67
2023/10/12 00:04:35;;;;;;;15.52;7.13;;;13.20;99.90;;;;;;5036582;28;20068;-68
2023/10/12 00:07:15;;;;;;;9.23;6.57;;;13.20;99.90;;;;;;5041742;28;20099;-70
2023/10/12 00:10:01;;;;;;;9.80;7.35;;;13.20;99.90;;;;;;5039721;28;20048;-70
2023/10/12 00:12:35;;;;;;;10.68;6.85;;;13.10;99.90;;;;;;5038515;28;20065;-68
2023/10/12 00:15:22;;;;;;;12.00;6.68;;;13.10;99.90;;;;;;5041673;28;20049;-69
2023/10/12 00:17:58;;;;;;;13.40;6.47;;;13.10;99.90;;;;;;5039050;28;20049;-70
2023/10/12 00:23:10;;;;;;;9.70;6.30;;;13.00;99.90;;;;;;5032554;28;20053;-68
2023/10/12 00:25:54;;;;;;;11.88;7.80;;;13.00;99.90;;;;;;5046078;28;20053;-70
2023/10/12 00:28:37;;;;;;;11.15;6.55;;;13.00;99.90;;;;;;5039615;28;20072;-68
2023/10/12 00:31:17;;;;;;;12.15;6.68;;;13.00;99.90;;;;;;5019981;28;20099;-69
2023/10/12 00:33:48;;;;;;;11.68;6.78;;;12.90;99.90;;;;;;5036986;28;20037;-70
2023/10/12 00:36:24;;;;;;;12.32;7.07;;;12.90;99.90;;;;;;5036474;28;20042;-70
2023/10/12 00:38:56;;;;;;;14.30;6.55;;;12.90;99.90;;;;;;5025889;28;20048;-68
2023/10/12 00:41:29;;;;;;;9.23;5.65;;;12.90;99.90;;;;;;5029764;28;20059;-70
2023/10/12 00:49:16;;;;;;;10.23;3.67;;;13.60;99.90;;;;;;5036104;28;20501;-68
2023/10/12 00:51:52;;;;;;;11.30;4.95;;;14.20;99.90;;;;;;5033216;28;20060;-68
2023/10/12 00:57:10;;;;;;;11.82;4.15;;;15.00;99.90;;;;;;5038750;28;20037;-68
2023/10/12 00:59:43;;;;;;;12.57;4.72;;;15.10;99.90;;;;;;5031608;28;20037;-68
2023/10/12 01:02:17;;;;;;;7.70;4.07;;;15.20;99.90;;;;;;5044747;28;20049;-68
2023/10/12 01:04:52;;;;;;;9.98;3.97;;;15.30;99.90;;;;;;5023055;28;20045;-69
2023/10/12 01:07:27;;;;;;;9.25;4.05;;;15.40;99.90;;;;;;5037997;28;20131;-69
2023/10/12 01:10:10;;;;;;;15.43;4.40;;;15.40;99.90;;;;;;5040856;28;20049;-67
2023/10/12 01:12:45;;;;;;;13.95;4.80;;;15.50;99.90;;;;;;5046257;28;20067;-71
2023/10/12 01:15:17;;;;;;;11.80;3.90;;;15.60;99.90;;;;;;5046035;28;20071;-69
2023/10/12 01:17:51;;;;;;;9.93;4.28;;;15.60;99.90;;;;;;5035882;28;20505;-69
2023/10/12 01:20:26;;;;;;;8.73;4.20;;;15.80;99.90;;;;;;5034177;28;20136;-68
2023/10/12 01:22:53;;;;;;;12.68;4.20;;;15.90;99.90;;;;;;5028706;28;20103;-68
2023/10/12 01:25:29;;;;;;;12.07;4.40;;;15.90;99.90;;;;;;5032628;28;20068;-69
2023/10/12 01:28:06;;;;;;;10.30;4.20;;;15.90;99.90;;;;;;5033990;28;20045;-70
2023/10/12 01:30:39;;;;;;;9.00;4.38;;;15.90;99.90;;;;;;5031768;28;20045;-68
2023/10/12 01:33:13;;;;;;;10.27;4.00;;;15.90;99.90;;;;;;5032840;28;20041;-70
2023/10/12 01:35:48;;;;;;;8.05;3.58;;;15.90;99.90;;;;;;5035041;28;20041;-68
2023/10/12 01:38:15;;;;;;;11.98;4.28;;;15.90;99.90;;;;;;5037529;28;20071;-70
2023/10/12 01:40:54;;;;;;;10.98;4.40;;;15.90;99.90;;;;;;5037917;28;20128;-68
2023/10/12 01:43:21;;;;;;;10.10;4.13;;;15.90;99.90;;;;;;5038424;28;20040;-68
2023/10/12 01:46:01;;;;;;;8.85;4.05;;;15.90;99.90;;;;;;5026753;28;20044;-69
2023/10/12 01:48:33;;;;;;;7.13;3.85;;;15.90;99.90;;;;;;5038981;28;20520;-68
2023/10/12 01:51:24;;;;;;;11.95;4.65;;;15.90;99.90;;;;;;5038879;28;20136;-68
2023/10/12 01:53:56;;;;;;;10.38;4.38;;;15.90;99.90;;;;;;5043079;28;20045;-70
2023/10/12 01:56:29;;;;;;;9.00;4.60;;;16.00;99.90;;;;;;5021704;28;20556;-68
2023/10/12 01:59:06;;;;;;;8.40;4.03;;;16.00;99.90;;;;;;5034113;28;20041;-69
2023/10/12 02:01:42;;;;;;;14.73;4.30;;;16.00;99.90;;;;;;5033732;28;20818;-68
2023/10/12 02:04:14;;;;;;;8.60;4.70;;;16.00;99.90;;;;;;5045381;28;20049;-70
2023/10/12 02:06:46;;;;;;;9.55;4.53;;;16.00;99.90;;;;;;5042168;28;20045;-68
2023/10/12 02:09:22;;;;;;;12.18;4.32;;;16.10;99.90;;;;;;5039705;28;20079;-68
2023/10/12 02:11:54;;;;;;;12.25;5.03;;;16.10;99.90;;;;;;5041072;28;20052;-68
2023/10/12 02:14:33;;;;;;;12.02;4.95;;;16.10;99.90;;;;;;5040103;28;20124;-70
2023/10/12 02:17:06;;;;;;;8.50;3.83;;;16.10;99.90;;;;;;5039344;28;20516;-69
2023/10/12 02:19:44;;;;;;;8.80;4.00;;;16.00;99.90;;;;;;5047587;28;20132;-69
2023/10/12 02:22:20;;;;;;;8.18;3.83;;;16.00;99.90;;;;;;5034028;28;20418;-69
2023/10/12 02:25:17;;;;;;;13.60;3.92;;;16.00;99.90;;;;;;5041536;28;20054;-68
2023/10/12 02:27:56;;;;;;;10.65;4.47;;;16.00;99.90;;;;;;5035451;28;20034;-69
2023/10/12 02:30:30;;;;;;;12.73;5.13;;;16.00;99.90;;;;;;5034590;28;20076;-70
2023/10/12 02:33:07;;;;;;;14.45;4.65;;;16.00;99.90;;;;;;5031491;28;20417;-70
2023/10/12 02:35:44;;;;;;;9.38;3.80;;;15.90;99.90;;;;;;5041911;28;20041;-69
2023/10/12 02:38:17;;;;;;;9.68;3.47;;;15.90;99.90;;;;;;5036580;28;20064;-69
2023/10/12 02:40:57;;;;;;;7.80;3.50;;;15.80;99.90;;;;;;5041709;28;20046;-68
2023/10/12 02:43:27;;;;;;;9.07;3.53;;;15.80;99.90;;;;;;5040769;28;20043;-69
2023/10/12 02:46:21;;;;;;;7.68;4.07;;;15.80;99.90;;;;;;5042851;28;20053;-68
2023/10/12 02:48:51;;;;;;;14.48;4.70;;;15.80;99.90;;;;;;5049576;28;20039;-69
2023/10/12 02:51:20;;;;;;;8.15;3.22;;;15.70;99.90;;;;;;5044406;28;20110;-70
2023/10/12 02:53:50;;;;;;;9.70;4.70;;;15.70;99.90;;;;;;5042697;28;20048;-70
2023/10/12 02:56:24;;;;;;;9.90;4.30;;;15.70;99.90;;;;;;5038400;28;20523;-70
2023/10/12 02:58:51;;;;;;;10.05;4.03;;;15.60;99.90;;;;;;5033837;28;20037;-69
2023/10/12 03:01:23;;;;;;;10.63;3.92;;;15.60;99.90;;;;;;5040787;28;20052;-70
2023/10/12 03:03:56;;;;;;;13.75;4.75;;;15.60;99.90;;;;;;5034367;28;20122;-69
2023/10/12 03:06:32;;;;;;;14.60;4.13;;;15.60;99.90;;;;;;5037833;28;20057;-70
2023/10/12 03:09:14;;;;;;;9.68;4.18;;;15.60;99.90;;;;;;5029984;28;20045;-69
2023/10/12 03:11:47;;;;;;;11.07;3.53;;;15.50;99.90;;;;;;5035465;28;20525;-68
2023/10/12 03:14:21;;;;;;;8.52;4.28;;;15.40;99.90;;;;;;5021209;28;20044;-69
2023/10/12 03:16:53;;;;;;;6.60;4.30;;;15.30;99.90;;;;;;5038964;28;20041;-69
2023/10/12 03:19:28;;;;;;;13.38;5.78;;;15.20;99.90;;;;;;5026007;28;20045;-68
2023/10/12 03:22:03;;;;;;;12.13;5.10;;;15.10;99.90;;;;;;5042540;28;20135;-68
2023/10/12 03:24:44;;;;;;;17.75;5.80;;;14.80;99.90;;;;;;5047153;28;20051;-68
2023/10/12 03:27:17;;;;;;;11.10;5.00;;;14.60;99.90;;;;;;5029508;28;20056;-69
2023/10/12 03:30:08;;;;;;;10.60;5.03;;;14.30;99.90;;;;;;5033333;28;20048;-71
2023/10/12 03:32:41;;;;;;;19.42;5.63;;;14.40;99.90;;;;;;5050920;28;20041;-68
2023/10/12 03:35:22;;;;;;;9.63;5.57;;;14.20;99.90;;;;;;5049607;28;20150;-68
2023/10/12 03:38:00;;;;;;;11.75;6.07;;;14.10;99.90;;;;;;5047310;28;20511;-69
2023/10/12 03:40:52;;;;;;;9.02;5.63;;;14.00;99.90;;;;;;5045409;28;20045;-70
2023/10/12 03:43:27;;;;;;;10.07;5.55;;;14.00;99.90;;;;;;5031515;28;20038;-69
2023/10/12 03:46:16;;;;;;;9.23;4.68;;;13.90;99.90;;;;;;5039614;28;20037;-70
2023/10/12 03:51:41;;;;;;;13.00;5.75;;;13.80;99.90;;;;;;5044988;28;20053;-68
2023/10/12 03:54:18;;;;;;;12.45;5.70;;;13.80;99.90;;;;;;5042056;28;20572;-68
2023/10/12 03:56:51;;;;;;;9.85;3.50;;;13.80;99.90;;;;;;5034774;28;20064;-69
2023/10/12 03:59:37;;;;;;;12.63;5.20;;;13.90;99.90;;;;;;5048614;28;20121;-70
2023/10/12 04:02:04;;;;;;;7.25;3.63;;;14.00;99.90;;;;;;5032932;28;20815;-68
2023/10/12 04:04:45;;;;;;;9.93;4.05;;;14.10;99.90;;;;;;5031141;28;20500;-70
2023/10/12 04:07:19;;;;;;;8.05;3.92;;;14.30;99.90;;;;;;5025104;28;20422;-69
2023/10/12 04:09:52;;;;;;;6.70;3.30;;;14.50;99.90;;;;;;5035540;28;20539;-70
2023/10/12 04:14:54;;;;;;;11.52;5.32;;;14.70;99.90;;;;;;5044367;28;20041;-69
2023/10/12 04:25:24;;;;;;;17.98;7.40;;;14.30;99.90;;;;;;5037016;28;20056;-68
2023/10/12 04:28:38;;;;;;;16.48;7.07;;;14.20;99.90;;;;;;5044958;28;20055;-69
2023/10/12 04:33:29;;;;;;;13.27;6.85;;;13.90;99.90;;;;;;5040545;28;20500;-69
2023/10/12 04:43:54;;;;;;;12.32;4.95;;;13.70;99.90;;;;;;5036502;28;20492;-69
2023/10/12 04:51:51;;;;;;;9.93;4.20;;;13.90;99.90;;;;;;5040011;28;20533;-68
2023/10/12 04:54:25;;;;;;;11.65;4.28;;;14.00;99.90;;;;;;5030815;28;20042;-69
2023/10/12 04:57:12;;;;;;;13.38;4.78;;;14.10;99.90;;;;;;5024629;28;20064;-68
2023/10/12 05:05:54;;;;;;;11.55;3.20;;;14.40;99.90;;;;;;5031208;28;20572;-70
2023/10/12 05:08:08;;;;;;;9.23;3.65;;;14.60;99.90;;;;;;5033992;28;20053;-70
2023/10/12 05:10:46;;;;;;;12.73;4.07;;;14.70;99.90;;;;;;5036204;28;20046;-69
2023/10/12 05:13:19;;;;;;;7.30;3.35;;;14.80;99.90;;;;;;5030717;28;20060;-69
2023/10/12 05:15:55;;;;;;;9.18;3.22;;;14.90;99.90;;;;;;5031007;28;20045;-70
2023/10/12 05:18:27;;;;;;;6.70;3.15;;;15.00;99.90;;;;;;5038145;28;20135;-69
2023/10/12 05:21:00;;;;;;;6.93;3.55;;;15.00;99.90;;;;;;5040377;28;20041;-68
2023/10/12 05:23:32;;;;;;;6.22;3.35;;;15.10;99.90;;;;;;5038080;28;20475;-69
2023/10/12 05:28:43;;;;;;;6.57;3.20;;;15.20;99.90;;;;;;5034657;28;20049;-71
2023/10/12 05:31:15;;;;;;;18.65;5.28;;;15.20;99.90;;;;;;5030625;28;20045;-68
2023/10/12 05:36:32;;;;;;;6.15;3.17;;;15.10;99.90;;;;;;5033624;28;20053;-68
2023/10/12 05:39:12;;;;;;;5.55;3.00;;;15.10;99.90;;;;;;5044693;28;20088;-70
2023/10/12 05:41:46;;;;;;;8.10;3.00;;;15.10;99.90;;;;;;5047002;28;20732;-70
2023/10/12 05:44:17;;;;;;;12.20;3.28;;;15.10;99.90;;;;;;5042418;28;20045;-68
2023/10/12 05:46:58;;;;;;;8.35;3.33;;;15.00;99.90;;;;;;5043135;28;20128;-68
2023/10/12 05:49:33;;;;;;;7.47;3.72;;;15.00;99.90;;;;;;5034722;28;20124;-69
2023/10/12 05:52:04;;;;;;;6.80;2.90;;;15.00;99.90;;;;;;5036482;28;20033;-69
2023/10/12 05:54:39;;;;;;;9.88;3.72;;;15.00;99.90;;;;;;5040743;28;20498;-69
2023/10/12 05:57:21;;;;;;;7.95;3.35;;;15.00;99.90;;;;;;5035099;28;20551;-67
2023/10/12 05:59:58;;;;;;;7.22;3.10;;;15.10;99.90;;;;;;5044981;28;20044;-68
2023/10/12 06:02:38;;;;;;;8.93;3.35;;;15.10;99.90;;;;;;5032766;28;20052;-69
2023/10/12 06:05:09;;;;;;;6.53;3.20;;;15.10;99.90;;;;;;5047996;28;20041;-70
2023/10/12 06:07:41;;;;;;;10.23;3.20;;;15.00;99.90;;;;;;5048258;28;20045;-70
2023/10/12 06:10:13;;;;;;;10.70;3.40;;;15.00;99.90;;;;;;5046278;28;20051;-69
2023/10/12 06:12:47;;;;;;;7.65;4.00;;;15.00;99.90;;;;;;5044787;28;20467;-70
2023/10/12 06:15:24;;;;;;;6.03;3.45;;;14.90;99.90;;;;;;5037865;28;20515;-68
2023/10/12 06:17:57;;;;;;;4.95;3.00;;;15.00;99.90;;;;;;5026197;28;20045;-70
2023/10/12 06:20:35;;;;;;;5.90;3.15;;;15.00;99.90;;;;;;5041243;28;20048;-68
2023/10/12 06:23:08;;;;;;;6.25;3.15;;;15.00;99.90;;;;;;5039062;28;20098;-69
2023/10/12 06:25:43;;;;;;;7.97;3.45;;;15.10;99.90;;;;;;5038222;28;20041;-68
2023/10/12 06:28:17;;;;;;;6.35;3.05;;;15.20;99.90;;;;;;5043557;28;20130;-69
2023/10/12 06:30:50;;;;;;;5.32;2.85;;;15.20;99.90;;;;;;5034682;28;20037;-70
2023/10/12 06:33:22;;;;;;;5.80;2.95;;;15.30;99.90;;;;;;5037705;28;20069;-69
2023/10/12 06:35:59;;;;;;;7.63;3.22;;;15.30;99.90;;;;;;5048214;28;20148;-69
2023/10/12 06:38:48;;;;;;;7.50;3.70;;;15.40;99.90;;;;;;5049535;28;20661;-69
2023/10/12 06:41:58;;;;;;;7.65;3.67;;;15.40;99.90;;;;;;5030740;28;20086;-69
2023/10/12 06:47:23;;;;;;;5.72;3.05;;;15.50;99.90;;;;;;5047366;28;20045;-69
2023/10/12 06:50:00;;;;;;;5.55;2.90;;;15.60;99.90;;;;;;5039337;28;20064;-68
2023/10/12 06:52:31;;;;;;;5.25;2.72;;;15.70;99.90;;;;;;5043997;28;20134;-70
2023/10/12 06:55:08;;;;;;;8.93;4.00;;;15.80;99.90;;;;;;5042452;28;20091;-69
2023/10/12 06:57:43;;;;;;;9.52;3.08;;;15.90;99.90;;;;;;5045797;28;20041;-69
2023/10/12 07:00:29;;;;;;;5.55;3.13;;;16.00;99.90;;;;;;5030211;28;20056;-69
2023/10/12 07:02:56;;;;;;;8.85;4.28;;;16.20;99.90;;;;;;5049275;28;20037;-70
2023/10/12 07:05:32;;;;;;;8.88;3.67;;;16.40;99.90;;;;;;5050714;28;20409;-70
2023/10/12 07:08:07;;;;;;;7.88;3.40;;;16.60;99.90;;;;;;5037691;28;20049;-69
2023/10/12 07:10:34;;;;;;;9.50;3.15;;;16.60;99.90;;;;;;5051827;28;20045;-69
2023/10/12 07:13:03;;;;;;;9.00;2.88;;;16.70;99.90;;;;;;5050360;28;20036;-70
2023/10/12 07:15:40;;;;;;;12.00;3.50;;;16.60;99.90;;;;;;5049001;28;20044;-70
2023/10/12 07:18:15;;;;;;;6.07;3.83;;;16.60;99.90;;;;;;5038584;28;20417;-69
2023/10/12 07:20:48;;;;;;;12.23;4.95;;;16.50;99.90;;;;;;5040096;28;20055;-70
2023/10/12 07:23:15;;;;;;;7.30;4.03;;;16.40;99.90;;;;;;5032444;28;20119;-70
2023/10/12 07:25:49;;;;;;;9.50;4.63;;;16.30;99.90;;;;;;5040755;28;20091;-69
2023/10/12 07:28:32;;;;;;;10.98;4.15;;;16.20;99.90;;;;;;5048814;28;20146;-69
2023/10/12 07:39:20;;;;;;;9.68;3.08;;;16.30;99.90;;;;;;5045903;28;20049;-69
2023/10/12 07:41:55;;;;;;;11.02;3.13;;;16.50;99.90;;;;;;5031628;28;20490;-70
2023/10/12 07:44:28;;;;;;;6.40;3.15;;;16.90;99.90;;;;;;5038160;28;20036;-68
2023/10/12 07:47:03;;;;;;;7.25;3.05;;;17.20;99.90;;;;;;5051362;28;20120;-69
2023/10/12 07:52:21;;;;;;;7.05;3.13;;;17.40;99.90;;;;;;5043152;28;20052;-69
2023/10/12 07:54:58;;;;;;;8.05;3.00;;;17.50;99.90;;;;;;5041419;28;20454;-68
2023/10/12 07:57:30;;;;;;;7.07;2.70;;;17.60;99.90;;;;;;5041909;28;20069;-71
2023/10/12 08:21:31;;;;;;;8.32;3.30;;;17.70;99.90;;;;;;5044757;28;20041;-71
2023/10/12 08:40:32;;;;;;;7.72;3.40;;;18.10;99.90;;;;;;5032701;28;20128;-70
2023/10/12 08:43:06;;;;;;;8.73;3.10;;;18.20;99.90;;;;;;5031334;28;20079;-70
2023/10/12 08:45:35;;;;;;;8.50;3.05;;;18.30;99.90;;;;;;5045394;28;20568;-70
2023/10/12 08:48:09;;;;;;;8.23;3.50;;;18.40;99.90;;;;;;5045995;28;20046;-70
2023/10/12 08:50:49;;;;;;;9.13;3.55;;;18.40;99.90;;;;;;5045882;28;20049;-70
2023/10/12 08:53:26;;;;;;;7.70;3.67;;;18.50;99.90;;;;;;5038532;28;20044;-70
2023/10/12 08:55:54;;;;;;;6.93;3.17;;;18.60;99.90;;;;;;5029843;28;20046;-70
2023/10/12 08:58:42;;;;;;;7.72;3.10;;;18.60;99.90;;;;;;5037660;28;20037;-68
2023/10/12 09:01:10;;;;;;;6.88;3.05;;;18.70;99.90;;;;;;5041548;28;20095;-69
2023/10/12 09:03:44;;;;;;;8.13;3.57;;;18.90;99.90;;;;;;5044860;28;20053;-69
2023/10/12 09:09:05;;;;;;;12.25;4.28;;;19.20;99.90;;;;;;5043284;28;20045;-68
2023/10/12 09:11:38;;;;;;;8.60;3.58;;;19.30;99.90;;;;;;5042364;28;20049;-69
2023/10/12 09:14:16;;;;;;;8.35;3.40;;;19.40;99.90;;;;;;5047902;28;20072;-70
2023/10/12 09:16:53;;;;;;;11.70;3.60;;;19.50;99.90;;;;;;5035330;28;20146;-69
2023/10/12 09:19:32;;;;;;;9.32;3.97;;;19.60;99.90;;;;;;5046774;28;20052;-70
2023/10/12 09:22:05;;;;;;;10.93;3.60;;;19.70;99.90;;;;;;5035442;28;20505;-68
2023/10/12 09:24:37;;;;;;;;;;;19.70;99.90;;;;;;5037416;28;20045;-70
2023/10/12 09:27:26;;;;;;;9.73;3.60;;;19.80;99.90;;;;;;5029906;28;19925;-70
2023/10/12 09:29:58;;;;;;;8.07;4.38;;;19.90;99.90;;;;;;5030168;28;20045;-70
2023/10/12 09:32:26;;;;;;;7.90;3.65;;;20.00;99.90;;;;;;5041975;28;20111;-69
2023/10/12 09:37:33;;;;;;;9.00;4.57;;;20.10;99.90;;;;;;5046200;28;20043;-70
2023/10/12 09:40:23;;;;;;;9.13;3.83;;;20.20;99.90;;;;;;5038009;28;20056;-68
2023/10/12 09:42:59;;;;;;;8.65;4.00;;;20.20;99.90;;;;;;5047486;28;20071;-70
2023/10/12 09:45:33;;;;;;;6.22;3.25;;;20.30;99.90;;;;;;5049589;28;20053;-69
2023/10/12 09:48:11;;;;;;;12.73;4.25;;;20.30;99.90;;;;;;5031684;28;20060;-69
2023/10/12 09:50:44;;;;;;;10.80;4.00;;;20.40;99.90;;;;;;5037372;28;20422;-69
2023/10/12 09:53:26;;;;;;;7.88;3.38;;;20.40;99.90;;;;;;5035092;28;20441;-70
2023/10/12 09:56:28;;;;;;;9.25;3.95;;;20.40;99.90;;;;;;5041312;28;20052;-69
2023/10/12 09:59:13;;;;;;;11.55;5.05;;;20.50;99.90;;;;;;5038964;28;20105;-70
2023/10/12 10:07:17;;;;;;;13.02;3.80;;;20.60;99.90;;;;;;5030517;28;20076;-70
2023/10/12 10:09:53;;;;;;;12.40;3.53;;;20.70;99.90;;;;;;5045275;28;20060;-68
2023/10/12 10:12:35;;;;;;;9.52;3.72;;;20.80;99.90;;;;;;5048068;28;20045;-69
2023/10/12 10:15:10;;;;;;;7.45;3.78;;;20.90;99.90;;;;;;5048354;28;20517;-69
2023/10/12 10:17:52;;;;;;;7.28;3.28;;;21.00;99.90;;;;;;5046470;28;20049;-69
2023/10/12 10:23:00;;;;;;;7.75;4.18;;;21.10;99.90;;;;;;5044517;28;20045;-69
2023/10/12 10:25:42;;;;;;;10.68;5.47;;;21.10;99.90;;;;;;5043381;28;20056;-68
2023/10/12 10:28:25;;;;;;;8.85;3.72;;;21.10;99.90;;;;;;5046108;28;20042;-70
2023/10/12 10:30:59;;;;;;;9.13;3.80;;;21.10;99.90;;;;;;5042198;28;20406;-70
2023/10/12 10:33:37;;;;;;;7.13;3.90;;;21.10;99.90;;;;;;5045478;28;20127;-70
2023/10/12 10:36:14;;;;;;;8.20;3.58;;;21.10;99.90;;;;;;5040102;28;20037;-69
2023/10/12 10:41:46;;;;;;;9.48;3.92;;;21.30;99.90;;;;;;5049274;28;19925;-70
2023/10/12 10:44:22;;;;;;;9.45;3.78;;;21.50;99.90;;;;;;5033065;28;20577;-70
2023/10/12 10:47:00;;;;;;;9.27;4.13;;;21.60;99.90;;;;;;5042153;28;20052;-69
2023/10/12 10:49:33;;;;;;;9.45;4.63;;;21.80;99.90;;;;;;5038866;28;20076;-70
2023/10/12 10:54:37;;;;;;;8.10;4.47;;;22.30;99.90;;;;;;5043736;28;20417;-69
2023/10/12 10:57:16;;;;;;;6.18;4.03;;;22.50;99.90;;;;;;5039853;28;20136;-69
2023/10/12 10:59:49;;;;;;;9.65;5.03;;;22.80;99.90;;;;;;5037955;28;20045;-68
2023/10/12 11:02:21;;;;;;;6.95;3.63;;;23.00;99.90;;;;;;5035348;28;20116;-69
2023/10/12 11:04:51;;;;;;;8.70;4.30;;;23.00;99.90;;;;;;5039687;28;20136;-68
2023/10/12 11:07:24;;;;;;;9.98;5.57;;;23.00;99.90;;;;;;5037596;28;20064;-69
2023/10/12 11:10:07;;;;;;;9.85;4.65;;;22.90;99.90;;;;;;5037496;28;20056;-67
2023/10/12 11:12:39;;;;;;;8.05;4.15;;;22.80;99.90;;;;;;5035527;28;20049;-68
2023/10/12 11:15:14;;;;;;;6.65;4.13;;;22.70;99.90;;;;;;5039880;28;20059;-68
2023/10/12 11:18:07;;;;;;;9.88;4.60;;;22.60;99.90;;;;;;5040739;28;20519;-67
2023/10/12 11:20:53;;;;;;;8.50;4.45;;;22.50;99.90;;;;;;5038494;28;20127;-69
2023/10/12 11:23:25;;;;;;;7.72;3.88;;;22.60;99.90;;;;;;5040899;28;20498;-70
2023/10/12 11:26:17;;;;;;;9.48;4.68;;;22.60;99.90;;;;;;5035264;28;20052;-68
2023/10/12 11:28:45;;;;;;;16.85;4.70;;;22.50;99.90;;;;;;5038728;28;20037;-68
2023/10/12 11:31:30;;;;;;;10.57;4.35;;;22.60;99.90;;;;;;5036956;28;20540;-68
2023/10/12 11:34:11;;;;;;;7.85;4.13;;;22.70;99.90;;;;;;5041324;28;20041;-67
2023/10/12 11:36:45;;;;;;;10.43;4.18;;;22.80;99.90;;;;;;5041355;28;20048;-69
2023/10/12 11:39:21;;;;;;;10.55;4.68;;;23.00;99.90;;;;;;5044051;28;20497;-68
2023/10/12 11:42:07;;;;;;;8.45;4.82;;;23.20;99.90;;;;;;5042974;28;20060;-69
2023/10/12 11:44:43;;;;;;;8.88;4.25;;;23.30;99.90;;;;;;5044259;28;20036;-69
2023/10/12 11:47:27;;;;;;;6.93;3.85;;;23.30;99.90;;;;;;5041247;28;20049;-67
2023/10/12 11:49:59;;;;;;;12.90;4.32;;;23.50;99.90;;;;;;5045529;28;20037;-68
2023/10/12 11:52:32;;;;;;;6.75;4.38;;;23.60;99.90;;;;;;5076742;28;20051;-70
2023/10/12 11:55:19;;;;;;;7.15;3.72;;;23.70;99.90;;;;;;5071355;28;20119;-67
2023/10/12 11:57:59;;;;;;;5.97;3.95;;;23.80;99.90;;;;;;5073357;28;20040;-68
2023/10/12 12:00:38;;;;;;;7.93;4.30;;;23.80;99.90;;;;;;5081381;28;20122;-67
2023/10/12 12:03:11;;;;;;;10.57;4.10;;;23.70;99.90;;;;;;5057963;28;20047;-66
2023/10/12 12:05:39;;;;;;;5.30;3.38;;;23.80;99.90;;;;;;5058739;28;20464;-68
2023/10/12 12:08:14;;;;;;;;;;;23.80;99.90;;;;;;5073342;28;20048;-69
2023/10/12 12:13:23;;;;;;;15.45;3.85;;;23.80;99.90;;;;;;5079174;28;20574;-69
2023/10/12 12:15:57;;;;;;;;;;;23.80;99.90;;;;;;5078620;28;20098;-69
2023/10/12 12:18:29;;;;;;;16.58;3.30;;;23.70;99.90;;;;;;5056972;28;19924;-67
2023/10/12 12:21:14;;;;;;;9.15;4.38;;;23.80;99.90;;;;;;5063405;28;20445;-68
2023/10/12 12:23:42;;;;;;;7.43;3.78;;;23.80;99.90;;;;;;5077089;28;20059;-69
2023/10/12 12:26:17;;;;;;;5.97;3.63;;;23.80;99.90;;;;;;5061383;28;20044;-69
2023/10/12 12:29:02;;;;;;;7.05;3.78;;;23.90;99.90;;;;;;5084956;28;20044;-67
2023/10/12 12:31:34;;;;;;;8.73;3.95;;;23.90;99.90;;;;;;5082625;28;20602;-69
2023/10/12 12:34:06;;;;;;;8.70;3.55;;;23.90;99.90;;;;;;5082698;28;20577;-69
2023/10/12 12:36:38;;;;;;;8.40;3.80;;;23.90;99.90;;;;;;5080874;28;20102;-67
2023/10/12 12:39:11;;;;;;;9.48;4.63;;;24.00;99.90;;;;;;5077286;28;20059;-69
2023/10/12 12:41:38;;;;;;;6.50;3.65;;;24.00;99.90;;;;;;5062049;28;20096;-69
2023/10/12 12:44:11;;;;;;;8.43;3.58;;;24.00;99.90;;;;;;5066059;28;20040;-69
2023/10/12 12:46:43;;;;;;;8.57;4.18;;;24.10;99.90;;;;;;5081325;28;20051;-69
2023/10/12 12:49:11;;;;;;;10.95;4.00;;;24.00;99.90;;;;;;5058933;28;20068;-69
2023/10/12 12:51:38;;;;;;;9.10;3.50;;;24.00;99.90;;;;;;5055134;28;20068;-68
2023/10/12 12:54:11;;;;;;;7.55;5.03;;;23.90;99.90;;;;;;5079232;28;20032;-69
2023/10/12 12:56:43;;;;;;;7.40;4.00;;;23.70;99.90;;;;;;5080420;28;20116;-69
2023/10/12 12:59:15;;;;;;;6.90;4.55;;;23.60;99.90;;;;;;5084643;28;20046;-69
2023/10/12 13:01:45;;;;;;;12.85;4.18;;;23.70;99.90;;;;;;5047470;28;20040;-69
2023/10/12 13:04:14;;;;;;;6.95;3.55;;;23.80;99.90;;;;;;5061995;28;20409;-68
2023/10/12 13:06:41;;;;;;;10.27;3.90;;;23.80;99.90;;;;;;5081124;28;20139;-69
2023/10/12 13:09:28;;;;;;;8.70;4.70;;;23.90;99.90;;;;;;5082581;28;20044;-67
2023/10/12 13:12:00;;;;;;;8.93;3.88;;;24.00;99.90;;;;;;5084531;28;20051;-69
2023/10/12 13:14:32;;;;;;;8.75;3.83;;;23.90;99.90;;;;;;5058099;28;20416;-68
2023/10/12 13:17:04;;;;;;;9.68;3.90;;;23.90;99.90;;;;;;5056165;28;20126;-68
2023/10/12 13:19:36;;;;;;;6.82;3.63;;;23.70;99.90;;;;;;5053435;28;20540;-68
2023/10/12 13:22:08;;;;;;;10.50;4.20;;;23.50;99.90;;;;;;5059677;28;20123;-69
2023/10/12 13:24:40;;;;;;;10.45;5.00;;;23.50;99.90;;;;;;5058475;28;20165;-69
2023/10/12 13:27:20;;;;;;;7.57;6.18;;;23.50;99.90;;;;;;5065164;28;20048;-70
2023/10/12 13:29:52;;;;;;;10.63;5.10;;;23.50;99.90;;;;;;5075614;28;20044;-69
2023/10/12 13:32:26;;;;;;;5.88;4.68;;;23.60;99.90;;;;;;5056008;28;20041;-69
2023/10/12 13:34:58;;;;;;;7.78;4.13;;;23.50;99.90;;;;;;5063800;28;20044;-68
2023/10/12 13:37:30;;;;;;;8.93;4.85;;;23.40;99.90;;;;;;5045819;28;20041;-68
2023/10/12 13:40:02;;;;;;;7.00;5.05;;;23.30;99.90;;;;;;5077621;28;20048;-69
2023/10/12 13:42:35;;;;;;;10.55;7.45;;;23.30;99.90;;;;;;5059239;28;20040;-69
2023/10/12 13:45:12;;;;;;;7.68;5.43;;;23.30;99.90;;;;;;5067388;28;20052;-69
2023/10/12 13:47:48;;;;;;;11.40;4.30;;;23.30;99.90;;;;;;5067260;28;20050;-69
2023/10/12 13:50:20;;;;;;;9.77;4.32;;;23.30;99.90;;;;;;5054132;28;20498;-70
2023/10/12 13:52:46;;;;;;;9.48;4.00;;;23.30;99.90;;;;;;5069956;28;20044;-69
2023/10/12 13:55:16;;;;;;;10.07;5.03;;;23.20;99.90;;;;;;5067808;28;20037;-67
2023/10/12 13:58:00;;;;;;;7.35;3.42;;;23.20;99.90;;;;;;5068968;28;20037;-69
2023/10/12 14:00:26;;;;;;;9.30;3.97;;;23.10;99.90;;;;;;5071653;28;20052;-67
2023/10/12 14:02:59;;;;;;;10.20;4.00;;;23.00;99.90;;;;;;5083627;28;20499;-67
2023/10/12 14:05:31;;;;;;;10.47;3.50;;;22.90;99.90;;;;;;5048832;28;20086;-68
2023/10/12 14:08:01;;;;;;;5.55;3.60;;;22.90;99.90;;;;;;5084210;28;20044;-69
2023/10/12 14:10:41;;;;;;;5.40;3.60;;;22.90;99.90;;;;;;5065463;28;20106;-69
2023/10/12 14:13:13;;;;;;;8.23;4.07;;;22.80;99.90;;;;;;5061888;28;20524;-68
2023/10/12 14:15:43;;;;;;;11.15;3.78;;;22.80;99.90;;;;;;5081101;28;20039;-68
2023/10/12 14:18:18;;;;;;;6.45;3.75;;;22.70;99.90;;;;;;5072980;28;20036;-68
2023/10/12 14:20:51;;;;;;;7.35;4.18;;;22.70;99.90;;;;;;5082993;28;20040;-69
2023/10/12 14:23:18;;;;;;;8.45;4.15;;;22.60;99.90;;;;;;5063519;28;20512;-67
2023/10/12 14:25:50;;;;;;;7.03;4.03;;;22.60;99.90;;;;;;5085372;28;20383;-68
2023/10/12 14:28:23;;;;;;;7.28;4.13;;;22.60;99.90;;;;;;5063867;28;20044;-69
2023/10/12 14:30:50;;;;;;;9.88;3.45;;;22.50;99.90;;;;;;5062920;28;20063;-67
2023/10/12 14:33:22;;;;;;;4.10;3.17;;;22.40;99.90;;;;;;5063026;28;20518;-68
2023/10/12 14:35:51;;;;;;;9.48;3.95;;;22.40;99.90;;;;;;5063232;28;20079;-67
2023/10/12 14:38:24;;;;;;;6.75;4.03;;;22.40;99.90;;;;;;5064042;28;20076;-67
2023/10/12 14:40:56;;;;;;;4.88;3.58;;;22.40;99.90;;;;;;5063749;28;20041;-69
2023/10/12 14:43:30;;;;;;;7.03;3.33;;;22.40;99.90;;;;;;5065083;28;20051;-69
2023/10/12 14:46:04;;;;;;;6.88;3.65;;;22.30;99.90;;;;;;5070900;28;20047;-69
2023/10/12 14:48:31;;;;;;;10.60;3.85;;;22.30;99.90;;;;;;5068928;28;20048;-67
2023/10/12 14:51:12;;;;;;;6.13;3.40;;;22.20;99.90;;;;;;5073875;28;20051;-69
2023/10/12 14:53:40;;;;;;;6.93;3.97;;;22.20;99.90;;;;;;5092765;28;20586;-67
2023/10/12 14:56:15;;;;;;;9.23;4.10;;;22.10;99.90;;;;;;5085093;28;20040;-68
2023/10/12 14:58:49;;;;;;;6.60;3.42;;;22.00;99.90;;;;;;5071805;28;20131;-68
2023/10/12 15:01:22;;;;;;;11.02;4.07;;;22.00;99.90;;;;;;5083880;28;20041;-69
2023/10/12 15:03:55;;;;;;;7.35;4.55;;;22.00;99.90;;;;;;5072996;28;20040;-69
2023/10/12 15:06:31;;;;;;;6.18;4.18;;;22.00;99.90;;;;;;5072996;28;20044;-69
2023/10/12 15:09:03;;;;;;;8.98;3.35;;;21.90;99.90;;;;;;5080598;28;20047;-69
2023/10/12 15:11:35;;;;;;;8.50;4.07;;;21.80;99.90;;;;;;5084033;28;20119;-68
2023/10/12 15:14:08;;;;;;;8.07;4.22;;;21.80;99.90;;;;;;5071622;28;20036;-68
2023/10/12 15:16:42;;;;;;;8.43;4.43;;;21.70;99.90;;;;;;5080554;28;20036;-68
2023/10/12 15:19:09;;;;;;;6.43;3.83;;;21.80;99.90;;;;;;5066831;28;20040;-69
2023/10/12 15:21:43;;;;;;;6.43;3.45;;;21.80;99.90;;;;;;5058832;28;20135;-69
2023/10/12 15:24:15;;;;;;;8.50;3.78;;;21.70;99.90;;;;;;5058765;28;20471;-68
2023/10/12 15:26:47;;;;;;;7.55;3.65;;;21.70;99.90;;;;;;5062617;28;20036;-69
2023/10/12 15:29:19;;;;;;;8.05;3.95;;;21.70;99.90;;;;;;5076024;28;20044;-69
2023/10/12 15:31:53;;;;;;;10.63;3.90;;;21.70;99.90;;;;;;5059720;28;20071;-69